Pagrindinis puslapis
METAR-TAF:

METAR-TAF

Oro uostai :

Kramfors, Švedija

platuma: 63-03N, ilguma: 017-46E, Aukštis: 10 m

Dabartinis oras

Ataskaita buvo paskelbta 38 minutes, ne 22:20 UTC
Vėjas 4 kt iš Pietų
Temperatūra 12°C
Drėgmė 94%
Slėgis 1014 hPa
Matomumas 10 km arba daugiau

METAR: ESNK 162220Z AUTO 17004KT 9999 BKN009/// 12/11 Q1014

Laikas: 00:58 (22:58 UTC)

Prognozė

Ataskaita buvo paskelbta 8 valandos ir 28 minutes, ne 14:30 UTC
Prognozė galioja nuo 16 metu 15 UTC su 16 metu 18 UTC
Vėjas 8 kt iš Pietų/Pietryčių
Matomumas 10 km arba daugiau
Su prošvaistėmis ne aukštis 2500 ft
Tikimybė 40%
nuo 16 metu 15 UTC su 16 metu 18 UTC
Išsisklaidę debesys ne aukštis 3000 ft, aukštai iškilę kamuoliniai debesys.

TAF: ESNK 161430Z 1615/1618 15008KT 9999 BKN025 PROB40 1615/1618 SCT030TCU

Orai ataskaitas ir orų prognozės (METAR, TAF).

turimą stotys yra geltonos ir raudonos taškus žemėlapyje.

Perkelti pele per norėdami pamatyti stoties vardą.

Tada spustelėkite, norėdami matyti oro stebėjimo ir prognozės.

Norėdami pakeisti žemėlapį: spustelėkite ant žalios mygtukų su juodo kryžiaus žemyn,; žalią mygtuką su brūkšneliu, jei norite nutolinti; arba žalių rodyklių gretimoms žemėlapius.


METAR-TAF: